• Join FlightAware (Why Join?)
  • Login
  • US Flag GB Flag 
16:41 EDT


 

Airport Tracker/Info


-or-


 

Live Flight TrackerFlight Track Log ✈ FSR411 ✈ 18-Jun-2013 ✈ KCMI - KDET

Flight Track Log - Related Links

Times and Time Zones

All times are in EDT time to prevent confusion due to time zone crossing. See the FSR411 flight status page for this flight to view local times or setup timezone preferences in your user account.

Time Position Orientation Groundspeed Altitude Reporting Facility
EDT Latitude Longitude Course Direction KTS MPH feet Rate Location/Type
07:02 40.0792 -88.2839 57° Northeast 182 209 4,000  Level Chicago Center
07:03 40.1019 -88.2114 68° East 217 250 7,000 3,000 Climbing Chicago Center
07:04 40.1361 -88.1028 68° East 278 320 10,200 3,120 Climbing Chicago Center
07:05 40.1681 -87.9942 69° East 314 361 13,400 3,180 Climbing Chicago Center
07:06 40.2056 -87.8753 68° East 361 415 16,700 3,000 Climbing Chicago Center
07:07 40.3096 -87.7200 57° Northeast  Level Estimated
07:07 40.2456 -87.7400 69° East 397 457 19,500  Level Chicago Center
07:08 40.2897 -87.5944 68° East 427 491 22,200 1,680 Climbing Chicago Center
07:09 40.3406 -87.4292 68° East 454 522 23,000 360 Climbing Chicago Center
07:10 40.3867 -87.2672 69° East 471 542 23,000  Level Chicago Center
07:11 40.4353 -87.1089 68° East 468 539 23,000  Level Chicago Center
07:12 40.4800 -86.9547 69° East 455 524 23,000  Level Chicago Center
07:13 40.5253 -86.7994 69° East 453 521 23,000  Level Chicago Center
07:14 40.5714 -86.6408 69° East 461 531 23,000  Level Chicago Center
07:15 40.6178 -86.4808 69° East 466 536 23,000  Level Chicago Center
07:16 40.6747 -86.2836 69° East 478 550 23,000  Level Chicago Center
07:17 40.7169 -86.1322 70° East 480 552 23,000  Level Chicago Center
07:18 40.7642 -85.9658 69° East 487 560 23,000  Level Chicago Center
07:19 40.8108 -85.8011 69° East 483 556 23,000  Level Chicago Center
07:20 40.8569 -85.6347 70° East 485 558 23,000  Level Chicago Center
07:21 40.9164 -85.4356 68° East 489 563 23,000  Level Chicago Center
07:22 40.9678 -85.2672 68° East 496 571 23,000 -540 Level Chicago Center
07:23 41.0172 -85.1019 68° East 493 567 22,000 -1,200 Descending Chicago Center
07:24 41.0667 -84.9439 67° East 476 548 20,600 -1,560 Descending Chicago Center
07:25 41.1139 -84.7875 68° East 464 534 18,900 -1,560 Descending Chicago Center
07:26 41.1594 -84.6358 68° East 448 516 17,500 -1,380 Descending Chicago Center
07:27 41.2011 -84.4939 69° East 422 486 16,200 -1,260 Descending Chicago Center
07:28 41.2433 -84.3550 68° East 410 472 15,000 -1,200 Descending Chicago Center
07:29 41.2922 -84.1881 69° East 407 468 13,800 -1,080 Descending Chicago Center
07:30 41.3328 -84.0475 69° East 408 470 12,900 -960 Descending Chicago Center
07:31 41.3739 -83.9089 68° East 407 468 11,900 -1,020 Descending Chicago Center
07:32 41.3992 -83.8192 69° East 401 461 11,300 -1,020 Descending Cleveland Center
07:33 41.4364 -83.6881 69° East 390 449 10,300 -660 Descending Cleveland Center
07:34 41.4792 -83.5628 65° Northeast 376 433 10,000 -180 Descending Cleveland Center
07:35 41.5281 -83.4428 61° Northeast 369 425 10,000  Level Cleveland Center
07:36 41.5814 -83.3147 61° Northeast 374 430 10,000 -60 Level Cleveland Center
07:37 41.6236 -83.2056 63° Northeast 362 417 9,900 -840 Descending Cleveland Center
07:38 41.6678 -83.0933 62° Northeast 304 350 8,400 -900 Descending Cleveland Center
07:39 41.7097 -82.9836 63° Northeast 295 339 8,000 -240 Descending Cleveland Center
07:40 41.7614 -82.8964 52° Northeast 306 352 8,000  Level Cleveland Center
07:41 41.8194 -82.8178 45° Northeast 300 345 8,000 -360 Level Cleveland Center
07:42 41.8708 -82.7414 48° Northeast 296 341 7,400 -960 Descending Cleveland Center
07:43 41.9481 -82.7328 North 275 316 6,200 -1,200 Descending Cleveland Center
07:44 42.0250 -82.7439 354° North 264 304 5,000 -1,140 Descending Cleveland Center
07:45 42.0936 -82.7517 355° North 252 290 3,900 -1,020 Descending Cleveland Center
07:46 42.1619 -82.7767 345° North 243 280 3,000 -480 Descending Cleveland Center
07:47 42.2197 -82.8178 332° Northwest 216 249 3,000  Level Cleveland Center
07:48 42.2686 -82.8700 322° Northwest 228 262 3,000  Level Cleveland Center
07:49 42.3156 -82.9167 324° Northwest 187 215 3,000 -180 Level Cleveland Center
07:50 42.3564 -82.9547 325° Northwest 164 189 2,700 -840 Descending Cleveland Center
07:51 42.3808 -82.9836 319° Northwest 119 137 1,400 -1,440 Descending Cleveland Center
07:53 42.4000 -83.0000 North  Level FlightAware Approximate